Time;durP1;ratioP1;P1;durP2;ratioP2;P2;SDS_P1;SDS_P2;PMS_P1;PMS_P2;Temp;Humidity;BMP_temperature;BMP_pressure;BME280_temperature;BME280_humidity;BME280_pressure;Samples;Min_cycle;Max_cycle;Signal;HPM_P1;HPM_P2
2024/03/29 00:01:24;;;;;;;3.42;0.60;;;7.50;99.90;;;-144.05;54.71;56974.16;5080852;28;20553;-82
2024/03/29 00:03:53;;;;;;;2.53;0.68;;;8.80;99.90;;;-144.05;54.57;56986.91;5062614;28;20060;-80
2024/03/29 00:06:18;;;;;;;2.53;0.80;;;7.40;99.90;;;-144.05;54.27;56931.66;5078428;28;20028;-82
2024/03/29 00:08:45;;;;;;;1.95;0.60;;;;;;;-144.05;54.49;56967.78;5084271;28;20016;-80
2024/03/29 00:11:10;;;;;;;3.13;0.77;;;7.40;99.90;;;-144.05;54.69;56972.03;5083625;28;20025;-83
2024/03/29 00:13:37;;;;;;;2.72;0.80;;;;;;;-144.05;54.77;56961.41;5084278;28;20507;-80
2024/03/29 00:16:04;;;;;;;4.45;0.90;;;7.40;99.90;;;-144.05;54.56;56967.78;5076404;28;20086;-81
2024/03/29 00:18:30;;;;;;;4.93;1.00;;;7.30;99.90;;;-144.05;54.48;56963.53;5080022;28;20075;-80
2024/03/29 00:20:56;;;;;;;5.40;1.45;;;;;;;-144.05;54.30;56952.91;5058884;28;20466;-81
2024/03/29 00:23:22;;;;;;;2.17;0.80;;;7.60;99.90;;;-144.05;54.47;56952.91;5065218;28;20067;-82
2024/03/29 00:25:48;;;;;;;5.25;1.45;;;7.30;99.90;;;-144.05;54.17;56969.91;5061023;28;20024;-83
2024/03/29 00:28:13;;;;;;;4.65;0.60;;;7.00;99.90;;;-144.05;54.71;56982.66;5064919;28;20028;-83
2024/03/29 00:30:40;;;;;;;2.47;0.43;;;;;;;-144.05;54.59;56972.03;5083854;28;20024;-81
2024/03/29 00:33:06;;;;;;;5.47;0.90;;;7.60;99.90;;;-144.05;54.68;56959.28;5063438;28;20032;-81
2024/03/29 00:35:31;;;;;;;2.88;0.50;;;7.30;99.90;;;-144.05;54.53;56984.78;5075045;28;20028;-80
2024/03/29 00:37:58;;;;;;;5.75;0.93;;;;;;;-144.05;54.77;56967.78;5063690;28;20393;-81
2024/03/29 00:40:25;;;;;;;1.90;0.68;;;;;;;-144.05;54.40;56961.41;5080096;28;20032;-82
2024/03/29 00:42:50;;;;;;;1.58;0.70;;;7.40;99.90;;;-144.05;54.62;56980.53;5060324;28;20056;-82
2024/03/29 00:45:16;;;;;;;2.90;0.63;;;7.30;99.90;;;-144.05;54.23;56991.13;5081832;28;20032;-83
2024/03/29 00:47:43;;;;;;;3.53;0.80;;;;;;;-144.05;54.07;56957.16;5065287;28;20032;-82
2024/03/29 00:50:11;;;;;;;2.03;0.75;;;7.50;99.90;;;-144.05;54.08;56946.53;5073979;28;20032;-82
2024/03/29 00:52:37;;;;;;;2.60;0.73;;;;;;;-144.05;54.18;56974.16;5077372;28;20047;-81
2024/03/29 00:55:04;;;;;;;4.47;1.10;;;7.20;99.90;;;-144.05;54.22;56961.41;5062891;28;20115;-82
2024/03/29 00:57:31;;;;;;;3.40;0.75;;;;;;;-144.05;54.51;56942.28;5064777;28;20078;-80
2024/03/29 00:59:57;;;;;;;2.55;0.50;;;7.20;99.90;;;-144.05;54.14;56967.78;5059015;28;20098;-83
2024/03/29 01:02:23;;;;;;;2.10;0.40;;;7.40;99.90;;;-144.05;54.01;56961.41;5083358;28;20473;-82
2024/03/29 01:04:50;;;;;;;3.92;0.73;;;10.60;99.90;;;-144.05;54.22;56969.91;5081848;28;20020;-80
2024/03/29 01:07:17;;;;;;;2.33;0.75;;;;;;;-144.05;54.08;56957.16;5063446;28;20094;-82
2024/03/29 01:09:44;;;;;;;2.53;0.88;;;7.60;99.90;;;-144.05;54.31;56974.16;5084099;28;20111;-81
2024/03/29 01:12:10;;;;;;;2.40;0.50;;;7.90;99.90;;;-144.05;53.96;56974.16;5082791;28;20016;-80
2024/03/29 01:14:37;;;;;;;4.40;0.98;;;;;;;-144.05;54.22;56963.53;5085793;28;20057;-81
2024/03/29 01:17:04;;;;;;;4.00;0.70;;;7.20;99.90;;;-144.05;54.44;56944.41;5087134;28;20501;-81
2024/03/29 01:19:29;;;;;;;2.40;0.65;;;6.90;99.90;;;-144.05;53.74;56967.78;5089620;28;20032;-82
2024/03/29 01:21:55;;;;;;;2.40;0.70;;;7.10;99.90;;;-144.05;53.69;56938.03;5087957;28;20096;-81
2024/03/29 01:24:21;;;;;;;2.80;0.60;;;7.70;99.90;;;-144.05;53.79;56955.03;5084869;28;20062;-81
2024/03/29 01:26:47;;;;;;;3.33;0.68;;;;;;;-144.05;53.59;56940.16;5085702;28;20079;-83
2024/03/29 01:29:13;;;;;;;4.20;0.82;;;7.10;99.90;;;-144.05;53.54;56967.78;5086673;28;20074;-83
2024/03/29 01:31:39;;;;;;;3.70;0.90;;;;;;;-144.05;53.66;56989.00;5073878;28;20477;-82
2024/03/29 01:34:05;;;;;;;2.40;0.60;;;7.60;99.90;;;-144.05;53.82;56967.78;5067209;28;20524;-81
2024/03/29 01:36:31;;;;;;;5.22;1.33;;;7.10;99.90;;;-144.05;53.81;56972.03;5073890;28;20073;-82
2024/03/29 01:38:58;;;;;;;2.70;0.60;;;;;;;-144.05;53.29;56929.53;5062454;28;20086;-81
2024/03/29 01:41:27;;;;;;;3.05;0.60;;;7.40;99.90;;;-144.05;53.42;56976.28;5060322;28;20494;-81
2024/03/29 01:43:54;;;;;;;4.38;0.63;;;7.10;99.90;;;-144.05;53.52;56997.50;5060297;28;20588;-80
2024/03/29 01:46:23;;;;;;;2.33;0.80;;;7.90;99.90;;;-144.05;53.23;56950.78;5078005;28;20388;-81
2024/03/29 01:48:53;;;;;;;1.85;0.85;;;7.30;99.90;;;-144.05;53.05;56963.53;5074319;28;20425;-80
2024/03/29 01:51:23;;;;;;;1.83;0.73;;;7.40;99.90;;;-144.05;53.38;56946.53;5081838;28;20025;-82
2024/03/29 01:53:54;;;;;;;2.53;0.63;;;7.60;99.90;;;-144.05;53.34;56940.16;5059918;28;20102;-81
2024/03/29 01:56:23;;;;;;;2.20;0.75;;;7.30;99.90;;;-144.05;52.84;56938.03;5081789;28;20046;-80
2024/03/29 01:58:53;;;;;;;3.53;0.63;;;7.50;99.90;;;-144.05;52.93;56978.41;5081383;28;20099;-82
2024/03/29 02:01:21;;;;;;;4.57;0.73;;;7.60;99.90;;;-144.05;52.56;56957.16;5059789;28;20029;-83
2024/03/29 02:03:48;;;;;;;5.03;0.77;;;7.30;99.90;;;-144.05;52.55;56940.16;5068075;28;20035;-81
2024/03/29 02:06:14;;;;;;;2.05;0.50;;;7.20;99.90;;;-144.05;52.21;56972.03;5063395;28;20039;-82
2024/03/29 02:08:40;;;;;;;2.40;0.73;;;7.10;99.90;;;-144.05;52.39;56980.53;5072994;28;20089;-82
2024/03/29 02:11:07;;;;;;;2.30;0.52;;;9.20;99.90;;;-144.05;52.17;56982.66;5059674;28;20111;-80
2024/03/29 02:13:33;;;;;;;4.28;0.63;;;;;;;-144.05;52.62;56974.16;5084285;28;20111;-80
2024/03/29 02:15:59;;;;;;;3.47;0.60;;;10.90;99.90;;;-144.05;52.34;56948.66;5064976;28;20028;-82
2024/03/29 02:18:25;;;;;;;1.60;0.57;;;7.30;99.90;;;-144.05;52.19;56974.16;5084766;28;20032;-82
2024/03/29 02:20:52;;;;;;;2.22;0.60;;;7.50;99.90;;;-144.05;51.93;56967.78;5080373;28;20036;-82
2024/03/29 02:23:32;;;;;;;1.98;0.57;;;7.20;99.90;;;-144.05;51.90;56955.03;5066101;28;20099;-83
2024/03/29 02:25:58;;;;;;;1.08;0.50;;;7.10;99.90;;;-144.05;52.07;56969.91;5059469;28;20104;-82
2024/03/29 02:28:25;;;;;;;3.50;0.80;;;7.10;99.90;;;-144.05;51.57;56955.03;5085258;28;20020;-83
2024/03/29 02:30:51;;;;;;;3.35;0.70;;;14.10;99.90;;;-144.05;51.64;56978.41;5085261;28;20049;-82
2024/03/29 02:33:17;;;;;;;3.67;0.73;;;7.20;99.90;;;-144.05;51.30;56963.53;5088593;28;20031;-82
2024/03/29 02:35:43;;;;;;;1.70;0.77;;;7.40;99.90;;;-144.05;51.45;56944.41;5063642;28;20031;-82
2024/03/29 02:38:09;;;;;;;4.80;0.90;;;7.40;99.90;;;-144.05;50.99;56972.03;5082352;28;20025;-80
2024/03/29 02:40:35;;;;;;;1.70;0.47;;;7.50;99.90;;;-144.05;50.91;56963.53;5083066;28;20610;-80
2024/03/29 02:43:01;;;;;;;3.03;1.10;;;7.30;99.90;;;-144.05;51.01;56938.03;5082893;28;20032;-81
2024/03/29 02:45:26;;;;;;;2.85;0.90;;;7.20;99.90;;;-144.05;50.79;56959.28;5057942;28;20373;-80
2024/03/29 02:47:52;;;;;;;3.20;1.23;;;7.40;99.90;;;-144.05;50.77;56959.28;5083437;28;20039;-80
2024/03/29 02:50:18;;;;;;;4.10;1.30;;;8.40;99.90;;;-144.05;50.89;56965.66;5081356;28;20033;-80
2024/03/29 02:52:44;;;;;;;4.60;1.50;;;7.50;99.90;;;-144.05;50.99;56963.53;5082343;28;20048;-80
2024/03/29 02:55:10;;;;;;;2.47;1.10;;;;;;;-144.05;50.76;56940.16;5080594;28;20040;-83
2024/03/29 02:57:37;;;;;;;8.05;1.27;;;7.70;99.90;;;-144.05;50.24;56959.28;5066057;28;20450;-83
2024/03/29 03:00:08;;;;;;;3.88;0.82;;;7.70;99.90;;;-144.05;50.02;56959.28;5077675;28;20020;-84
2024/03/29 03:02:41;;;;;;;1.05;0.80;;;7.30;99.90;;;-144.05;49.12;56933.78;5084677;28;20065;-81
2024/03/29 03:05:08;;;;;;;2.13;0.60;;;7.70;99.90;;;-144.05;48.82;56946.53;5077451;28;20020;-83
2024/03/29 03:13:04;;;;;;;2.17;0.43;;;7.00;99.90;;;-144.05;48.27;56961.41;5075088;28;20073;-82
2024/03/29 03:15:30;;;;;;;3.33;0.90;;;7.70;99.90;;;-144.05;48.45;56963.53;5077620;28;20020;-80
2024/03/29 03:17:56;;;;;;;5.72;0.90;;;;;;;-144.05;48.40;56952.91;5081177;28;20051;-80
2024/03/29 03:20:22;;;;;;;3.28;0.60;;;8.00;99.90;;;-144.05;48.80;56965.66;5060330;28;20460;-82
2024/03/29 03:22:51;;;;;;;3.05;0.75;;;14.10;99.90;;;-144.05;49.16;56948.66;5061311;28;20023;-82
2024/03/29 03:25:17;;;;;;;2.50;0.68;;;7.70;99.90;;;-144.05;49.30;56967.78;5058916;28;20039;-82
2024/03/29 03:27:42;;;;;;;1.95;0.52;;;7.70;99.90;;;-144.05;49.17;56942.28;5074899;28;20469;-82
2024/03/29 03:30:10;;;;;;;2.13;0.70;;;8.00;99.90;;;-144.05;50.08;56946.53;5083164;28;20037;-81
2024/03/29 03:32:36;;;;;;;2.25;0.50;;;;;;;-144.05;51.28;56950.78;5065607;28;20353;-82
2024/03/29 03:35:02;;;;;;;3.67;0.50;;;7.50;99.90;;;-144.05;52.04;56952.91;5055738;28;20042;-80
2024/03/29 03:37:28;;;;;;;2.80;0.57;;;;;;;-144.05;53.23;56969.91;5085474;28;20105;-83
2024/03/29 03:39:54;;;;;;;0.63;0.35;;;;;;;-144.05;52.85;56950.78;5082411;28;20016;-83
2024/03/29 03:42:20;;;;;;;1.10;0.73;;;10.90;99.90;;;-144.05;53.21;56955.03;5063301;28;20569;-79
2024/03/29 03:44:46;;;;;;;1.42;0.60;;;13.80;99.90;;;-144.05;53.11;56961.41;5085612;28;20056;-85
2024/03/29 03:47:12;;;;;;;2.47;0.50;;;9.70;99.90;;;-144.05;53.86;56944.41;5068632;28;20033;-83
2024/03/29 03:49:38;;;;;;;2.88;0.60;;;7.50;99.90;;;-144.05;53.55;56976.28;5085508;28;20024;-82
2024/03/29 03:52:04;;;;;;;1.58;0.47;;;11.00;99.90;;;-144.05;54.56;56969.91;5078578;28;20047;-80
2024/03/29 03:54:30;;;;;;;2.30;0.70;;;7.50;99.90;;;-144.05;54.84;56948.66;5060307;28;20028;-81
2024/03/29 03:56:56;;;;;;;1.33;0.50;;;;;;;-144.05;55.35;56963.53;5081314;28;20037;-83
2024/03/29 03:59:23;;;;;;;1.30;0.43;;;;;;;-144.05;56.06;56948.66;5081024;28;20029;-79
2024/03/29 04:01:51;;;;;;;2.00;0.80;;;14.00;99.90;;;-144.05;56.85;56946.53;5081321;28;20020;-80
2024/03/29 04:04:18;;;;;;;2.30;0.47;;;7.70;99.90;;;-144.05;56.83;56976.28;5061525;28;20455;-82
2024/03/29 04:06:44;;;;;;;3.50;0.60;;;14.00;99.90;;;-144.05;57.20;56955.03;5062946;28;20444;-80
2024/03/29 04:09:10;;;;;;;1.75;0.47;;;7.10;99.90;;;-144.05;57.98;56974.16;5057392;28;20085;-82
2024/03/29 04:11:36;;;;;;;2.33;0.40;;;7.30;99.90;;;-144.05;59.11;56933.78;5080734;28;20036;-80
2024/03/29 04:14:02;;;;;;;2.35;0.60;;;;;;;-144.05;59.45;56989.00;5054368;28;20020;-80
2024/03/29 04:16:28;;;;;;;1.52;0.47;;;7.00;99.90;;;-144.05;60.16;56955.03;5056726;28;20052;-81
2024/03/29 04:18:53;;;;;;;4.00;0.70;;;7.40;99.90;;;-144.05;60.75;56916.81;5060633;28;20020;-79
2024/03/29 04:21:19;;;;;;;1.60;0.60;;;7.50;99.90;;;-144.05;61.50;56980.53;5056814;28;20032;-81
2024/03/29 04:23:45;;;;;;;1.10;0.40;;;7.60;99.90;;;-144.05;63.01;56952.91;5079758;28;20051;-80
2024/03/29 04:26:11;;;;;;;1.58;0.60;;;7.90;99.90;;;-144.05;63.00;56959.28;5056324;28;20032;-79
2024/03/29 04:28:37;;;;;;;2.17;0.70;;;10.30;99.90;;;-144.05;62.89;56944.41;5080064;28;20485;-81
2024/03/29 04:31:03;;;;;;;1.55;0.70;;;7.10;99.90;;;-144.05;62.84;56950.78;5076859;28;20024;-81
2024/03/29 04:33:28;;;;;;;0.98;0.52;;;7.80;99.90;;;-144.05;62.56;56963.53;5060568;28;20027;-80
2024/03/29 04:36:01;;;;;;;2.13;0.70;;;7.70;99.90;;;-144.05;62.94;56963.53;5078004;28;20401;-80
2024/03/29 04:38:28;;;;;;;2.88;0.70;;;7.70;99.90;;;-144.05;63.52;56961.41;5059982;28;20024;-82
2024/03/29 04:40:57;;;;;;;3.08;0.40;;;8.60;99.90;;;-144.05;64.00;56950.78;5062194;28;20122;-80
2024/03/29 04:43:27;;;;;;;2.00;0.60;;;7.10;99.90;;;-144.05;64.82;56963.53;5077386;28;20039;-79
2024/03/29 04:46:12;;;;;;;3.08;0.80;;;7.30;99.90;;;-144.05;65.26;56963.53;5059537;28;20102;-79
2024/03/29 04:48:41;;;;;;;1.30;0.50;;;;;;;-144.05;65.98;56959.28;5060934;28;20382;-80
2024/03/29 04:51:09;;;;;;;1.98;0.80;;;8.50;99.90;;;-144.05;67.44;56969.91;5080143;28;20552;-82
2024/03/29 04:53:41;;;;;;;3.45;0.98;;;7.30;99.90;;;-144.05;68.47;56944.41;5064646;28;20035;-81
2024/03/29 04:56:07;;;;;;;2.47;0.77;;;8.50;99.90;;;-144.05;68.98;56952.91;5075701;28;20027;-81
2024/03/29 04:58:33;;;;;;;2.08;0.55;;;7.00;99.90;;;-144.05;68.86;56946.53;5086858;28;20108;-85
2024/03/29 05:00:59;;;;;;;3.83;0.77;;;;;;;-144.05;68.02;56933.78;5069278;28;20458;-83
2024/03/29 05:03:25;;;;;;;1.63;0.80;;;8.80;99.90;;;-144.05;69.20;56950.78;5070241;28;20100;-80
2024/03/29 05:05:53;;;;;;;4.18;0.80;;;8.20;99.90;;;-144.05;70.14;56955.03;5112695;28;20027;-79
2024/03/29 05:08:22;;;;;;;2.08;0.75;;;6.90;99.90;;;-144.05;70.12;56946.53;5106019;28;20100;-78
2024/03/29 05:10:50;;;;;;;1.48;0.57;;;7.10;99.90;;;-144.05;70.35;56963.53;5089264;28;20024;-80
2024/03/29 05:13:18;;;;;;;2.38;0.75;;;8.70;99.90;;;-144.05;71.80;56963.53;5087792;28;20051;-81
2024/03/29 05:15:44;;;;;;;2.85;1.08;;;7.60;99.90;;;-144.05;71.73;56967.78;5087435;28;20028;-77
2024/03/29 05:18:11;;;;;;;3.30;0.68;;;;;;;-144.05;72.55;56950.78;5086473;28;20095;-83
2024/03/29 05:20:39;;;;;;;3.92;0.75;;;7.10;99.90;;;-144.05;73.40;56955.03;5063741;28;20029;-81
2024/03/29 05:23:06;;;;;;;3.58;1.30;;;;;;;-144.05;72.90;56961.41;5055464;28;20025;-83
2024/03/29 05:25:31;;;;;;;1.85;0.90;;;8.40;99.90;;;-144.05;73.62;56980.53;5079032;28;20478;-82
2024/03/29 05:27:57;;;;;;;3.35;1.00;;;8.50;99.90;;;-144.05;74.58;56946.53;5067626;28;20027;-82
2024/03/29 05:30:24;;;;;;;2.72;0.90;;;;;;;-144.05;75.31;56961.41;5061496;28;20024;-81
2024/03/29 05:32:50;;;;;;;2.58;0.90;;;6.80;99.90;;;-144.05;78.45;56963.53;5078430;28;20031;-82
2024/03/29 05:35:16;;;;;;;4.25;0.93;;;7.00;99.90;;;-144.05;77.93;56982.66;5061383;28;20032;-83
2024/03/29 05:37:42;;;;;;;2.22;1.00;;;7.00;99.90;;;-144.05;78.47;56933.78;5063136;28;20020;-81
2024/03/29 05:40:09;;;;;;;2.42;0.82;;;6.70;99.90;;;-144.05;78.59;56959.28;5061108;28;20100;-82
2024/03/29 05:42:36;;;;;;;1.92;0.90;;;7.60;99.90;;;-144.05;79.30;56963.53;5081091;28;20094;-81
2024/03/29 05:45:23;;;;;;;4.28;1.05;;;8.30;99.90;;;-144.05;81.36;56982.66;5055438;28;20482;-80
2024/03/29 05:47:50;;;;;;;4.28;1.27;;;;;;;-144.05;81.02;56950.78;5076587;28;20184;-81
2024/03/29 05:50:16;;;;;;;6.75;0.98;;;;;;;-144.05;80.73;56984.78;5061069;28;20470;-79
2024/03/29 05:52:42;;;;;;;3.92;1.13;;;8.00;99.90;;;-144.05;80.81;56976.28;5063204;28;20024;-83
2024/03/29 05:55:09;;;;;;;2.92;0.90;;;;;;;-144.05;80.54;56963.53;5058724;28;20025;-81
2024/03/29 05:57:40;;;;;;;3.08;0.70;;;8.40;99.90;;;-144.05;80.52;56950.78;5060332;28;20028;-80
2024/03/29 06:00:09;;;;;;;4.00;1.08;;;6.90;99.90;;;-144.05;80.42;56969.91;5073195;28;20401;-82
2024/03/29 06:02:35;;;;;;;6.95;1.25;;;8.40;99.90;;;-144.05;80.72;56959.28;5079925;28;20078;-81
2024/03/29 06:05:02;;;;;;;2.67;0.95;;;;;;;-144.05;81.12;56959.28;5058163;28;20021;-83
2024/03/29 06:07:29;;;;;;;3.42;1.05;;;7.00;99.90;;;-144.05;81.11;56974.16;5078333;28;20041;-80
2024/03/29 06:09:55;;;;;;;3.00;0.98;;;7.80;99.90;;;-144.05;80.54;56974.16;5058199;28;20029;-82
2024/03/29 06:12:21;;;;;;;3.97;1.20;;;8.90;99.90;;;-144.05;80.91;56969.91;5076123;28;20033;-84
2024/03/29 06:17:31;;;;;;;4.50;1.20;;;8.50;99.90;;;-144.05;80.93;56959.28;5091922;28;20113;-82
2024/03/29 06:20:00;;;;;;;5.20;1.10;;;7.80;99.90;;;-144.05;80.39;56946.53;5070183;28;20041;-85
2024/03/29 06:22:30;;;;;;;4.03;1.48;;;6.90;99.90;;;-144.05;80.28;56950.78;5088679;28;20029;-81
2024/03/29 06:25:04;;;;;;;7.45;1.25;;;7.90;99.90;;;-144.05;80.54;56944.41;5087309;28;20097;-80
2024/03/29 06:27:32;;;;;;;7.13;1.25;;;7.80;99.90;;;-144.05;80.05;56965.66;5053499;28;20029;-81
2024/03/29 06:29:58;;;;;;;3.15;1.33;;;6.70;99.90;;;-144.05;80.14;56955.03;5063981;28;20032;-83
2024/03/29 06:32:24;;;;;;;2.72;1.40;;;;;;;-144.05;80.32;56972.03;5050664;28;20025;-82
2024/03/29 06:34:50;;;;;;;2.75;1.20;;;6.90;99.90;;;-144.05;79.41;56959.28;5061962;28;20035;-81
2024/03/29 06:37:16;;;;;;;3.78;1.25;;;;;;;-144.05;80.08;56972.03;5066626;28;20024;-81
2024/03/29 06:39:43;;;;;;;2.08;0.82;;;7.50;99.90;;;-144.05;80.12;56933.78;5064911;28;20025;-83
2024/03/29 06:42:09;;;;;;;2.67;1.00;;;8.50;99.90;;;-144.05;80.12;56952.91;5067437;28;20070;-82
2024/03/29 06:44:39;;;;;;;3.50;1.23;;;7.90;99.90;;;-144.05;80.31;56952.91;5060421;28;20059;-81
2024/03/29 06:47:07;;;;;;;2.55;1.00;;;;;;;-144.05;80.47;56993.25;5072303;28;20036;-82
2024/03/29 06:49:33;;;;;;;2.33;1.00;;;;;;;-144.05;80.19;56925.28;5077619;28;20029;-79
2024/03/29 06:52:01;;;;;;;4.78;1.30;;;;;;;-144.05;80.51;56978.41;5078719;28;20103;-80
2024/03/29 06:54:28;;;;;;;3.10;0.90;;;8.70;99.90;;;-144.05;80.05;56972.03;5060158;28;20029;-82
2024/03/29 06:56:56;;;;;;;4.45;1.13;;;;;;;-144.05;80.63;56974.16;5060000;28;20661;-83
2024/03/29 06:59:23;;;;;;;4.18;1.13;;;7.60;99.90;;;-144.05;81.19;56974.16;5060802;28;20043;-80
2024/03/29 07:01:53;;;;;;;6.68;1.00;;;;;;;-144.05;81.19;56963.53;5059352;28;20020;-81
2024/03/29 07:04:25;;;;;;;2.40;1.00;;;8.30;99.90;;;-144.05;81.24;56993.25;5078639;28;20470;-82
2024/03/29 07:06:54;;;;;;;3.55;1.20;;;;;;;-144.05;81.17;56957.16;5076814;28;20062;-82
2024/03/29 07:09:22;;;;;;;3.67;2.17;;;7.10;99.90;;;-144.05;80.70;56959.28;5060503;28;20032;-81
2024/03/29 07:11:51;;;;;;;5.40;1.20;;;7.10;99.90;;;-144.05;81.07;56940.16;5072288;28;20028;-80
2024/03/29 07:14:19;;;;;;;3.85;1.20;;;8.60;99.90;;;-144.05;80.73;56959.28;5077332;28;20024;-83
2024/03/29 07:16:46;;;;;;;3.00;1.30;;;7.50;99.90;;;-144.05;81.51;56955.03;5069098;28;20020;-82
2024/03/29 07:19:15;;;;;;;4.55;1.42;;;7.30;99.90;;;-144.05;81.66;56961.41;5055267;28;20055;-83
2024/03/29 07:21:45;;;;;;;3.53;1.20;;;10.70;99.90;;;-144.05;80.69;56942.28;5076680;28;20112;-81
2024/03/29 07:24:12;;;;;;;5.78;1.17;;;7.40;99.90;;;-144.05;81.06;56974.16;5078000;28;20043;-81
2024/03/29 07:26:39;;;;;;;2.72;1.48;;;10.80;99.90;;;-144.05;81.14;56957.16;5078250;28;20059;-80
2024/03/29 07:29:06;;;;;;;3.83;1.60;;;10.80;99.90;;;-144.05;81.08;56952.91;5059515;28;20029;-82
2024/03/29 07:31:34;;;;;;;4.65;1.00;;;7.90;99.90;;;-144.05;79.83;56978.41;5056270;28;20024;-81
2024/03/29 07:34:00;;;;;;;0.98;0.90;;;;;;;-144.05;81.09;56948.66;5066072;28;20563;-84
2024/03/29 07:36:31;;;;;;;2.20;0.95;;;11.10;99.90;;;-144.05;80.02;56946.53;5077919;28;20032;-80
2024/03/29 07:39:00;;;;;;;3.72;0.95;;;13.90;99.90;;;-144.05;80.04;56931.66;5060983;28;20055;-82
2024/03/29 07:41:26;;;;;;;1.90;1.08;;;7.50;99.90;;;-144.05;80.17;56944.41;5062110;28;20174;-76
2024/03/29 07:44:00;;;;;;;3.53;0.95;;;10.90;99.90;;;-144.05;79.81;56929.53;5070761;28;20040;-83
2024/03/29 07:46:33;;;;;;;4.72;0.90;;;7.50;99.90;;;-144.05;78.87;56931.66;5066857;28;20033;-81
2024/03/29 07:49:00;;;;;;;2.38;0.80;;;13.60;99.90;;;-144.05;78.40;56931.66;5077482;28;20012;-83
2024/03/29 07:51:26;;;;;;;2.25;0.70;;;;;;;-144.05;77.83;56929.53;5078271;28;20035;-84
2024/03/29 07:53:53;;;;;;;1.20;0.63;;;;;;;-144.05;78.24;56952.91;5061097;28;20036;-82
2024/03/29 07:56:19;;;;;;;2.80;0.90;;;13.30;99.90;;;-144.05;78.61;56946.53;5076004;28;20071;-84
2024/03/29 07:58:45;;;;;;;3.78;1.00;;;14.00;99.90;;;-144.05;78.38;56942.28;5060328;28;20028;-84
2024/03/29 08:01:22;;;;;;;3.20;0.85;;;10.00;99.90;;;-144.05;78.44;56914.69;5077503;28;20031;-85
2024/03/29 08:03:53;;;;;;;1.15;0.70;;;8.00;99.90;;;-144.05;78.35;56950.78;5081943;28;20047;-82
2024/03/29 08:06:20;;;;;;;1.40;0.77;;;8.30;99.90;;;-144.05;77.69;56921.06;5061698;28;20397;-82
2024/03/29 08:08:46;;;;;;;1.67;0.70;;;14.00;99.90;;;-144.05;77.58;56935.91;5079433;28;20350;-84
2024/03/29 08:11:12;;;;;;;1.40;0.65;;;8.30;99.90;;;-144.05;77.49;56931.66;5078343;28;20358;-83
2024/03/29 08:13:40;;;;;;;1.58;0.80;;;13.80;99.90;;;-144.05;77.86;56933.78;5080348;28;20084;-87
2024/03/29 08:16:06;;;;;;;1.27;0.80;;;7.30;99.90;;;-144.05;78.31;56963.53;5079438;28;20024;-81
2024/03/29 08:18:36;;;;;;;1.98;0.90;;;7.80;99.90;;;-144.05;78.80;56931.66;5087217;28;20017;-83
2024/03/29 08:21:03;;;;;;;1.65;0.77;;;;;;;-144.05;79.42;56918.94;5074705;28;20054;-86
2024/03/29 08:23:30;;;;;;;1.58;0.70;;;;;;;-144.05;79.11;56950.78;5067584;28;20024;-83
2024/03/29 08:25:56;;;;;;;1.23;0.90;;;13.90;99.90;;;-144.05;78.45;56942.28;5064027;28;20119;-82
2024/03/29 08:28:23;;;;;;;3.40;0.95;;;10.20;99.90;;;-144.05;77.86;56938.03;5064904;28;20048;-83
2024/03/29 08:31:10;;;;;;;1.17;0.70;;;7.40;99.90;;;-144.05;78.90;56955.03;5057989;28;20043;-82
2024/03/29 08:33:39;;;;;;;2.75;0.90;;;;;;;-144.05;77.78;56931.66;5056498;28;20051;-82
2024/03/29 08:36:10;;;;;;;2.42;0.90;;;10.30;99.90;;;-144.05;77.63;56929.53;5055933;28;20494;-80
2024/03/29 08:38:41;;;;;;;2.92;0.73;;;7.60;99.90;;;-144.05;78.44;56944.41;5056268;28;20044;-82
2024/03/29 08:41:07;;;;;;;1.83;0.80;;;;;;;-144.05;77.87;56931.66;5050245;28;20021;-80
2024/03/29 08:43:34;;;;;;;6.05;0.82;;;7.60;99.90;;;-144.05;78.45;56935.91;5057423;28;20394;-81
2024/03/29 08:46:00;;;;;;;1.40;0.60;;;7.50;99.90;;;-144.05;77.37;56950.78;5057148;28;20035;-81
2024/03/29 08:48:27;;;;;;;2.08;0.80;;;7.40;99.90;;;-144.05;77.81;56963.53;5053416;28;20032;-83
2024/03/29 08:50:54;;;;;;;1.67;0.70;;;7.60;99.90;;;-144.05;76.19;56942.28;5058671;28;20020;-80
2024/03/29 08:53:25;;;;;;;1.42;0.60;;;;;;;-144.05;76.90;56927.41;5058236;28;20032;-80
2024/03/29 08:55:51;;;;;;;4.32;0.60;;;;;;;-144.05;75.77;56931.66;5076199;28;20024;-80
2024/03/29 08:58:19;;;;;;;2.53;0.70;;;13.80;99.90;;;-144.05;76.50;56948.66;5075339;28;20077;-82
2024/03/29 09:00:56;;;;;;;0.88;0.57;;;10.70;99.90;;;-144.05;77.91;56914.69;5074999;28;20056;-83
2024/03/29 09:03:23;;;;;;;1.73;0.80;;;13.90;99.90;;;-144.05;79.40;56940.16;5074726;28;20027;-79
2024/03/29 09:05:51;;;;;;;2.13;0.70;;;7.60;99.90;;;-144.05;79.50;56938.03;5056676;28;20020;-79
2024/03/29 09:08:20;;;;;;;1.73;1.17;;;10.70;99.90;;;-144.05;79.22;56940.16;5075343;28;20073;-80
2024/03/29 09:10:46;;;;;;;2.28;0.95;;;;;;;-144.05;78.60;56910.44;5071837;28;20021;-79
2024/03/29 09:13:13;;;;;;;3.63;0.75;;;;;;;-144.05;78.31;56938.03;5076280;28;20112;-79
2024/03/29 09:15:39;;;;;;;4.43;0.82;;;14.30;99.90;;;-144.05;78.02;56942.28;5076107;28;20032;-81
2024/03/29 09:18:19;;;;;;;2.50;0.77;;;7.90;99.90;;;-144.05;76.99;56895.56;5057767;28;20111;-82
2024/03/29 09:20:45;;;;;;;1.65;0.50;;;;;;;-144.05;74.90;56967.78;5058479;28;20052;-79
2024/03/29 09:23:15;;;;;;;1.08;0.60;;;11.60;99.90;;;-144.05;74.71;56944.41;5074584;28;20036;-83
2024/03/29 09:25:41;;;;;;;1.80;0.50;;;13.90;99.90;;;-144.05;73.47;56904.06;5058390;28;20124;-81
2024/03/29 09:28:09;;;;;;;1.02;0.50;;;;;;;-144.05;73.05;56929.53;5080922;28;20048;-81
2024/03/29 09:30:36;;;;;;;0.93;0.70;;;;;;;-144.05;72.58;56925.28;5065208;28;20025;-83
2024/03/29 09:33:06;;;;;;;1.45;0.60;;;13.70;99.90;;;-144.05;72.51;56923.19;5069615;28;20048;-82
2024/03/29 09:35:32;;;;;;;3.03;0.70;;;;;;;-144.05;73.33;56938.03;5061711;28;20121;-80
2024/03/29 09:37:59;;;;;;;2.35;0.60;;;14.20;99.90;;;-144.05;73.01;56921.06;5069906;28;20472;-80
2024/03/29 09:40:27;;;;;;;3.47;0.68;;;;;;;-144.05;73.57;56940.16;5061550;28;20032;-81
2024/03/29 09:42:57;;;;;;;1.38;0.80;;;13.40;99.90;;;-144.05;72.78;56944.41;5062882;28;20051;-83
2024/03/29 09:45:24;;;;;;;3.58;0.55;;;14.30;99.90;;;-144.05;72.21;56938.03;5079935;28;20028;-83
2024/03/29 09:47:53;;;;;;;1.25;0.70;;;12.10;99.90;;;-144.05;72.33;56901.94;5079368;28;20037;-80
2024/03/29 09:50:19;;;;;;;1.15;0.60;;;14.40;99.90;;;-144.05;71.50;56929.53;5061850;28;20033;-82
2024/03/29 09:52:46;;;;;;;2.10;0.52;;;;;;;-144.05;71.12;56923.19;5061622;28;20065;-81
2024/03/29 09:55:12;;;;;;;0.57;0.35;;;9.10;99.90;;;-144.05;70.27;56906.19;5079000;28;20085;-83
2024/03/29 09:57:38;;;;;;;3.13;0.60;;;;;;;-144.05;70.36;56929.53;5079265;28;20113;-81
2024/03/29 10:00:05;;;;;;;2.38;0.63;;;14.30;99.90;;;-144.05;68.30;56918.94;5060920;28;20512;-82
2024/03/29 10:02:33;;;;;;;3.10;0.93;;;14.20;99.90;;;-144.05;68.48;56910.44;5078314;28;20032;-81
2024/03/29 10:05:08;;;;;;;1.25;0.63;;;12.80;99.90;;;-144.05;68.62;56957.16;5078961;28;20020;-81
2024/03/29 10:07:36;;;;;;;2.75;0.55;;;;;;;-144.05;66.02;56929.53;5059510;28;20477;-81
2024/03/29 10:10:03;;;;;;;3.22;0.50;;;;;;;-144.05;66.35;56942.28;5071154;28;20024;-83
2024/03/29 10:12:29;;;;;;;1.05;0.50;;;9.10;99.90;;;-144.05;66.90;56931.66;5059711;28;20032;-81
2024/03/29 10:15:05;;;;;;;4.03;1.13;;;14.50;99.90;;;-144.05;66.52;56933.78;5077653;28;20034;-79
2024/03/29 10:17:32;;;;;;;3.50;0.70;;;;;;;-144.05;66.04;56948.66;5077646;28;20028;-81
2024/03/29 10:20:05;;;;;;;1.02;0.38;;;12.90;99.90;;;-144.05;65.56;56931.66;5077045;28;20024;-81
2024/03/29 10:22:41;;;;;;;3.45;0.60;;;9.50;99.90;;;-144.05;66.66;56944.41;5058351;28;20029;-82
2024/03/29 10:25:07;;;;;;;1.42;0.47;;;9.90;99.90;;;-144.05;65.93;56899.81;5070986;28;20398;-81
2024/03/29 10:27:34;;;;;;;0.70;0.40;;;9.10;99.90;;;-144.05;65.02;56908.31;5059227;28;20020;-82
2024/03/29 10:30:00;;;;;;;2.13;0.50;;;;;;;-144.05;65.43;56923.19;5060453;28;20029;-81
2024/03/29 10:32:27;;;;;;;1.40;0.80;;;;;;;-144.05;65.62;56916.81;5076030;28;20166;-81
2024/03/29 10:34:53;;;;;;;2.17;0.68;;;;;;;-144.05;64.07;56935.91;5057143;28;20051;-82
2024/03/29 10:37:26;;;;;;;1.13;0.40;;;14.80;99.90;;;-144.05;65.68;56942.28;5057283;28;20096;-82